Time;durP1;ratioP1;P1;durP2;ratioP2;P2;SDS_P1;SDS_P2;PMS_P1;PMS_P2;Temp;Humidity;BMP_temperature;BMP_pressure;BME280_temperature;BME280_humidity;BME280_pressure;Samples;Min_cycle;Max_cycle;Signal;HPM_P1;HPM_P2
2024/02/14 00:01:33;;;;;;;;;;;;;;;-1.21;87.60;100730.01;137180;1276;22475;-77
2024/02/14 00:04:34;;;;;;;;;;;;;;;-1.24;87.54;100731.05;137190;1276;23099;-76
2024/02/14 00:07:34;;;;;;;;;;;;;;;-1.28;87.63;100728.85;137212;1276;23185;-76
2024/02/14 00:10:35;;;;;;;;;;;;;;;-1.33;87.68;100731.83;137130;1276;23074;-76
2024/02/14 00:13:36;;;;;;;;;;;;;;;-1.39;87.75;100730.87;137149;1276;22386;-76
2024/02/14 00:16:38;;;;;;;;;;;;;;;-1.42;88.01;100726.90;137141;1276;23135;-79
2024/02/14 00:19:39;;;;;;;;;;;;;;;-1.47;87.82;100729.41;136964;1276;22372;-76
2024/02/14 00:22:43;;;;;;;;;;;;;;;-1.53;87.82;100731.75;137156;1273;22377;-76
2024/02/14 00:25:48;;;;;;;;;;;;;;;-1.58;88.10;100733.04;137150;1276;23054;-76
2024/02/14 00:28:49;;;;;;;;;;;;;;;-1.56;88.04;100734.51;137149;1276;22399;-76
2024/02/14 00:31:50;;;;;;;;;;;;;;;-1.56;88.05;100733.63;137142;1276;23019;-76
2024/02/14 00:34:51;;;;;;;;;;;;;;;-1.56;88.13;100737.30;137118;1276;23114;-79
2024/02/14 00:37:52;;;;;;;;;;;;;;;-1.53;88.37;100734.89;137166;1276;22374;-77
2024/02/14 00:40:53;;;;;;;;;;;;;;;-1.51;88.30;100737.91;137004;1276;22420;-76
2024/02/14 00:43:53;;;;;;;;;;;;;;;-1.49;88.19;100738.16;137129;1276;23075;-77
2024/02/14 00:47:02;;;;;;;;;;;;;;;-1.53;88.29;100735.91;137182;1267;22438;-76
2024/02/14 00:50:03;;;;;;;;;;;;;;;-1.51;88.42;100740.70;137009;1273;22387;-76
2024/02/14 00:53:03;;;;;;;;;;;;;;;-1.49;88.65;100738.86;137136;1276;23144;-76
2024/02/14 00:56:04;;;;;;;;;;;;;;;-1.50;88.34;100740.63;137181;1276;23116;-76
2024/02/14 00:59:08;;;;;;;;;;;;;;;-1.54;87.97;100739.95;137143;1276;22399;-76
2024/02/14 01:02:08;;;;;;;;;;;;;;;-1.57;88.13;100735.77;137147;1276;22462;-76
2024/02/14 01:05:11;;;;;;;;;;;;;;;-1.55;88.45;100733.41;137182;1276;22436;-76
2024/02/14 01:08:12;;;;;;;;;;;;;;;-1.58;88.06;100732.33;137190;1276;23088;-76
2024/02/14 01:11:13;;;;;;;;;;;;;;;-1.59;88.70;100732.91;137143;1275;22377;-76
2024/02/14 01:14:14;;;;;;;;;;;;;;;-1.56;88.56;100731.73;137135;1276;22454;-76
2024/02/14 01:17:17;;;;;;;;;;;;;;;-1.56;88.58;100736.09;137175;1270;22456;-76
2024/02/14 01:20:18;;;;;;;;;;;;;;;-1.56;88.76;100738.50;137113;1276;23291;-77
2024/02/14 01:23:19;;;;;;;;;;;;;;;-1.56;88.60;100738.17;136939;1276;23030;-76
2024/02/14 01:26:23;;;;;;;;;;;;;;;-1.57;88.40;100738.05;137174;1276;22381;-76
2024/02/14 01:29:27;;;;;;;;;;;;;;;-1.58;88.14;100739.29;137160;1276;22283;-76
2024/02/14 01:32:29;;;;;;;;;;;;;;;-1.58;88.32;100739.30;137143;1276;22526;-75
2024/02/14 01:35:30;;;;;;;;;;;;;;;-1.54;88.43;100734.42;137111;1276;23444;-75
2024/02/14 01:38:33;;;;;;;;;;;;;;;-1.52;88.50;100731.70;137151;1276;23421;-76
2024/02/14 01:41:34;;;;;;;;;;;;;;;-1.54;88.62;100730.08;137151;1276;23116;-76
2024/02/14 01:44:36;;;;;;;;;;;;;;;-1.56;88.58;100733.64;137114;1276;22356;-76
2024/02/14 01:47:57;;;;;;;;;;;;;;;-1.56;88.77;100733.48;137122;1276;23280;-76
2024/02/14 01:50:58;;;;;;;;;;;;;;;-1.56;88.39;100732.46;137144;1276;23184;-78
2024/02/14 01:54:00;;;;;;;;;;;;;;;-1.60;88.63;100730.00;137127;1276;22407;-76
2024/02/14 01:57:01;;;;;;;;;;;;;;;-1.62;88.28;100737.05;137124;1276;22412;-75
2024/02/14 02:00:08;;;;;;;;;;;;;;;-1.70;88.19;100738.15;137150;1276;23046;-77
2024/02/14 02:03:13;;;;;;;;;;;;;;;-1.78;88.10;100736.95;136947;1276;22323;-76
2024/02/14 02:06:14;;;;;;;;;;;;;;;-1.84;88.19;100734.98;137158;1276;22463;-77
2024/02/14 02:09:16;;;;;;;;;;;;;;;-1.89;88.40;100732.09;137117;1276;22392;-76
2024/02/14 02:12:16;;;;;;;;;;;;;;;-1.91;88.40;100723.54;137150;1276;22526;-76
2024/02/14 02:15:19;;;;;;;;;;;;;;;-1.97;88.24;100728.98;137129;1276;23195;-76
2024/02/14 02:18:20;;;;;;;;;;;;;;;-2.03;88.21;100731.20;137139;1274;22385;-76
2024/02/14 02:21:23;;;;;;;;;;;;;;;-2.07;88.53;100728.92;137143;1276;22393;-76
2024/02/14 02:24:23;;;;;;;;;;;;;;;-2.14;88.23;100726.52;137137;1276;22373;-76
2024/02/14 02:27:24;;;;;;;;;;;;;;;-2.19;88.41;100723.27;137122;1276;23052;-76
2024/02/14 02:30:25;;;;;;;;;;;;;;;-2.20;88.76;100725.91;137119;1276;22384;-76
2024/02/14 02:33:26;;;;;;;;;;;;;;;-2.20;89.00;100726.24;137157;1276;22451;-76
2024/02/14 02:36:29;;;;;;;;;;;;;;;-2.18;88.96;100727.39;137119;1276;22385;-79
2024/02/14 02:39:30;;;;;;;;;;;;;;;-2.17;88.85;100728.91;137148;1276;22397;-75
2024/02/14 02:42:31;;;;;;;;;;;;;;;-2.19;88.92;100719.61;137163;1270;23148;-77
2024/02/14 02:45:31;;;;;;;;;;;;;;;-2.18;89.21;100723.39;137142;1270;22412;-75
2024/02/14 02:48:32;;;;;;;;;;;;;;;-2.19;89.10;100725.35;137172;1274;22498;-76
2024/02/14 02:51:33;;;;;;;;;;;;;;;-2.16;89.56;100728.35;137082;1276;23332;-75
2024/02/14 02:54:34;;;;;;;;;;;;;;;-2.15;89.33;100731.59;137153;1276;22473;-75
2024/02/14 02:57:36;;;;;;;;;;;;;;;-2.14;89.26;100731.15;137126;1276;22451;-76
2024/02/14 03:00:37;;;;;;;;;;;;;;;-2.12;89.59;100728.13;137170;1276;22379;-76
2024/02/14 03:03:38;;;;;;;;;;;;;;;-2.13;89.34;100727.30;137132;1276;22492;-76
2024/02/14 03:06:39;;;;;;;;;;;;;;;-2.14;89.31;100733.95;137171;1276;22416;-76
2024/02/14 03:09:40;;;;;;;;;;;;;;;-2.14;89.39;100734.49;137063;1269;22371;-75
2024/02/14 03:12:41;;;;;;;;;;;;;;;-2.14;89.79;100734.13;137155;1276;22548;-75
2024/02/14 03:15:43;;;;;;;;;;;;;;;-2.13;89.88;100739.98;137103;1276;22447;-75
2024/02/14 03:18:44;;;;;;;;;;;;;;;-2.11;89.86;100738.14;137131;1276;22362;-77
2024/02/14 03:21:46;;;;;;;;;;;;;;;-2.10;89.59;100736.55;137128;1276;22432;-75
2024/02/14 03:24:47;;;;;;;;;;;;;;;-2.05;89.88;100741.83;137118;1276;22417;-75
2024/02/14 03:27:52;;;;;;;;;;;;;;;-2.04;89.74;100741.78;137102;1276;22401;-75
2024/02/14 03:30:53;;;;;;;;;;;;;;;-2.04;90.03;100743.18;137139;1276;22372;-76
2024/02/14 03:33:53;;;;;;;;;;;;;;;-2.02;89.69;100740.17;137135;1272;22403;-76
2024/02/14 03:36:54;;;;;;;;;;;;;;;-2.04;89.72;100742.69;137178;1276;22399;-76
2024/02/14 03:39:55;;;;;;;;;;;;;;;-2.04;89.67;100741.80;137120;1276;23078;-77
2024/02/14 03:42:55;;;;;;;;;;;;;;;-2.05;89.80;100744.64;137125;1276;22397;-76
2024/02/14 03:45:56;;;;;;;;;;;;;;;-2.05;89.71;100751.20;137162;1273;22396;-76
2024/02/14 03:48:57;;;;;;;;;;;;;;;-2.11;89.45;100753.77;137136;1272;22377;-79
2024/02/14 03:51:57;;;;;;;;;;;;;;;-2.18;89.38;100757.89;137155;1276;22550;-76
2024/02/14 03:55:02;;;;;;;;;;;;;;;-2.25;89.53;100763.91;137115;1276;22450;-76
2024/02/14 03:58:03;;;;;;;;;;;;;;;-2.33;89.35;100763.05;136989;1272;22507;-78
2024/02/14 04:01:04;;;;;;;;;;;;;;;-2.38;89.75;100758.80;137091;1276;22426;-76
2024/02/14 04:04:04;;;;;;;;;;;;;;;-2.42;89.92;100759.52;137130;1269;22377;-76
2024/02/14 04:07:05;;;;;;;;;;;;;;;-2.46;89.87;100757.40;137122;1276;22407;-75
2024/02/14 04:10:06;;;;;;;;;;;;;;;-2.46;89.91;100760.19;137147;1270;22360;-75
2024/02/14 04:13:06;;;;;;;;;;;;;;;-2.46;90.05;100762.61;137108;1276;22417;-76
2024/02/14 04:16:07;;;;;;;;;;;;;;;-2.46;90.13;100765.36;137124;1275;22410;-76
2024/02/14 04:19:10;;;;;;;;;;;;;;;-2.44;90.15;100764.77;137099;1276;22959;-76
2024/02/14 04:22:11;;;;;;;;;;;;;;;-2.37;90.21;100766.73;137103;1276;22391;-79
2024/02/14 04:25:12;;;;;;;;;;;;;;;-2.36;90.02;100766.83;137131;1276;22403;-77
2024/02/14 04:28:12;;;;;;;;;;;;;;;-2.32;89.97;100767.70;137125;1276;22420;-76
2024/02/14 04:31:13;;;;;;;;;;;;;;;-2.28;90.19;100762.31;137106;1276;23050;-76
2024/02/14 04:34:14;;;;;;;;;;;;;;;-2.22;90.43;100765.02;137121;1276;22436;-77
2024/02/14 04:37:15;;;;;;;;;;;;;;;-2.22;90.30;100762.59;137102;1276;22469;-77
2024/02/14 04:40:18;;;;;;;;;;;;;;;-2.20;90.22;100759.39;137132;1276;22381;-76
2024/02/14 04:43:19;;;;;;;;;;;;;;;-2.20;90.37;100757.80;137109;1276;23142;-75
2024/02/14 04:46:22;;;;;;;;;;;;;;;-2.21;90.51;100756.64;137107;1272;22439;-76
2024/02/14 04:49:22;;;;;;;;;;;;;;;-2.20;90.60;100755.02;137141;1276;22368;-75
2024/02/14 04:52:23;;;;;;;;;;;;;;;-2.18;90.62;100759.45;137126;1276;22381;-76
2024/02/14 04:55:24;;;;;;;;;;;;;;;-2.20;90.72;100762.12;137130;1276;23080;-76
2024/02/14 04:58:26;;;;;;;;;;;;;;;-2.16;90.71;100769.95;137109;1276;23011;-76
2024/02/14 05:01:27;;;;;;;;;;;;;;;-2.12;90.83;100769.06;137140;1276;22389;-77
2024/02/14 05:04:27;;;;;;;;;;;;;;;-2.13;90.59;100763.73;137113;1276;22389;-78
2024/02/14 05:07:28;;;;;;;;;;;;;;;-2.16;90.72;100760.75;137113;1276;22415;-76
2024/02/14 05:10:31;;;;;;;;;;;;;;;-2.20;90.71;100754.70;137103;1276;22374;-76
2024/02/14 05:13:32;;;;;;;;;;;;;;;-2.26;90.78;100750.60;137016;1276;22440;-75
2024/02/14 05:16:32;;;;;;;;;;;;;;;-2.24;91.07;100750.04;137123;1270;22359;-76
2024/02/14 05:19:33;;;;;;;;;;;;;;;-2.24;91.31;100752.27;137091;1276;23277;-76
2024/02/14 05:22:33;;;;;;;;;;;;;;;-2.24;91.36;100751.60;137147;1276;22361;-76
2024/02/14 05:25:34;;;;;;;;;;;;;;;-2.24;91.24;100751.92;137106;1276;22372;-76
2024/02/14 05:28:35;;;;;;;;;;;;;;;-2.28;90.97;100748.60;137106;1276;23090;-77
2024/02/14 05:31:45;;;;;;;;;;;;;;;-2.29;91.23;100751.11;137132;1276;22403;-76
2024/02/14 05:34:46;;;;;;;;;;;;;;;-2.28;91.61;100747.43;137115;1276;23182;-76
2024/02/14 05:37:49;;;;;;;;;;;;;;;-2.29;91.28;100748.67;137105;1276;22370;-75
2024/02/14 05:40:50;;;;;;;;;;;;;;;-2.33;91.37;100749.02;137050;1276;22401;-74
2024/02/14 05:43:50;;;;;;;;;;;;;;;-2.36;91.30;100746.38;137119;1275;22377;-73
2024/02/14 05:46:51;;;;;;;;;;;;;;;-2.42;91.40;100745.81;137108;1273;22382;-79
2024/02/14 05:49:51;;;;;;;;;;;;;;;-2.49;91.45;100744.54;137115;1276;22419;-75
2024/02/14 05:52:52;;;;;;;;;;;;;;;-2.52;91.61;100747.11;137166;1276;23175;-73
2024/02/14 05:55:52;;;;;;;;;;;;;;;-2.54;91.93;100753.06;137175;1276;22398;-75
2024/02/14 05:58:53;;;;;;;;;;;;;;;-2.53;92.02;100751.68;137122;1276;22366;-74
2024/02/14 06:01:53;;;;;;;;;;;;;;;-2.52;92.18;100751.08;137112;1276;22405;-75
2024/02/14 06:04:54;;;;;;;;;;;;;;;-2.45;92.39;100750.64;137110;1276;22341;-75
2024/02/14 06:07:55;;;;;;;;;;;;;;;-2.41;92.35;100758.05;137014;1276;22397;-75
2024/02/14 06:10:56;;;;;;;;;;;;;;;-2.39;92.31;100755.17;137096;1271;22380;-75
2024/02/14 06:13:57;;;;;;;;;;;;;;;-2.35;92.36;100758.66;137154;1276;22406;-75
2024/02/14 06:17:03;;;;;;;;;;;;;;;-2.25;92.57;100760.11;137079;1276;22412;-75
2024/02/14 06:20:07;;;;;;;;;;;;;;;-2.14;92.61;100765.16;137165;1276;22392;-75
2024/02/14 06:23:07;;;;;;;;;;;;;;;-2.04;92.50;100768.34;137171;1276;22398;-75
2024/02/14 06:26:11;;;;;;;;;;;;;;;-1.93;92.54;100767.86;137169;1273;22367;-75
2024/02/14 06:29:16;;;;;;;;;;;;;;;-1.83;92.72;100769.94;137108;1276;22403;-75
2024/02/14 06:32:20;;;;;;;;;;;;;;;-1.69;92.72;100764.29;137143;1276;22261;-75
2024/02/14 06:35:21;;;;;;;;;;;;;;;-1.55;92.83;100761.20;137151;1276;22384;-76
2024/02/14 06:38:21;;;;;;;;;;;;;;;-1.38;92.68;100763.64;137129;1276;22442;-76
2024/02/14 06:41:22;;;;;;;;;;;;;;;-1.05;93.45;100764.46;137124;1276;22392;-76
2024/02/14 06:44:23;;;;;;;;;;;;;;;-0.77;93.07;100761.69;137128;1276;22365;-75
2024/02/14 06:47:29;;;;;;;;;;;;;;;-0.48;93.20;100762.75;137155;1276;22865;-76
2024/02/14 06:50:33;;;;;;;;;;;;;;;-0.19;93.22;100760.21;137122;1276;22293;-76
2024/02/14 06:53:37;;;;;;;;;;;;;;;0.06;92.69;100755.02;137148;1276;23205;-78
2024/02/14 06:56:40;;;;;;;;;;;;;;;0.18;92.50;100762.19;137161;1276;22394;-77
2024/02/14 06:59:42;;;;;;;;;;;;;;;0.36;92.36;100768.66;137167;1273;22359;-76
2024/02/14 07:02:43;;;;;;;;;;;;;;;0.54;92.29;100764.19;137123;1273;22387;-76
2024/02/14 07:05:44;;;;;;;;;;;;;;;0.77;92.35;100766.55;137140;1276;22390;-77
2024/02/14 07:08:44;;;;;;;;;;;;;;;1.06;92.42;100760.51;137127;1276;22379;-77
2024/02/14 07:11:50;;;;;;;;;;;;;;;1.25;91.91;100761.09;137143;1276;22394;-77
2024/02/14 07:14:51;;;;;;;;;;;;;;;1.42;91.66;100764.32;136992;1276;22353;-78
2024/02/14 07:17:53;;;;;;;;;;;;;;;1.54;91.43;100765.59;137174;1273;22360;-78
2024/02/14 07:21:08;;;;;;;;;;;;;;;1.75;91.60;100767.48;137162;1276;22372;-80
2024/02/14 07:24:09;;;;;;;;;;;;;;;2.03;91.62;100765.04;136970;1276;22291;-77
2024/02/14 07:27:13;;;;;;;;;;;;;;;2.31;91.49;100765.40;136984;1276;22391;-77
2024/02/14 07:30:14;;;;;;;;;;;;;;;2.47;90.80;100764.50;136933;1276;22400;-77
2024/02/14 07:33:15;;;;;;;;;;;;;;;2.58;90.27;100767.98;137139;1276;22519;-76
2024/02/14 07:36:17;;;;;;;;;;;;;;;2.66;89.87;100769.91;137123;1276;22388;-77
2024/02/14 07:39:17;;;;;;;;;;;;;;;2.72;89.53;100766.40;137110;1276;22394;-77
2024/02/14 07:42:18;;;;;;;;;;;;;;;2.75;89.36;100766.73;137129;1276;22432;-77
2024/02/14 07:45:19;;;;;;;;;;;;;;;2.81;89.26;100774.71;137089;1276;22362;-77
2024/02/14 07:48:19;;;;;;;;;;;;;;;2.90;89.20;100779.39;137138;1273;22410;-77
2024/02/14 07:51:20;;;;;;;;;;;;;;;2.99;89.35;100769.53;137138;1276;23075;-77
2024/02/14 07:54:21;;;;;;;;;;;;;;;2.97;88.59;100766.30;137139;1276;22382;-77
2024/02/14 07:57:24;;;;;;;;;;;;;;;3.05;88.99;100762.61;137170;1276;22415;-77
2024/02/14 08:00:25;;;;;;;;;;;;;;;3.12;88.57;100753.05;137023;1276;22409;-77
2024/02/14 08:03:25;;;;;;;;;;;;;;;2.97;87.65;100750.61;137179;1271;22385;-78
2024/02/14 08:06:33;;;;;;;;;;;;;;;2.96;88.26;100748.57;137162;1276;22396;-78
2024/02/14 08:09:34;;;;;;;;;;;;;;;3.00;88.13;100748.45;137165;1276;22320;-78
2024/02/14 08:12:34;;;;;;;;;;;;;;;3.21;88.61;100751.21;137145;1272;22431;-78
2024/02/14 08:15:35;;;;;;;;;;;;;;;3.54;88.76;100748.45;137127;1276;22446;-78
2024/02/14 08:18:36;;;;;;;;;;;;;;;3.87;88.79;100741.25;137156;1276;22398;-78
2024/02/14 08:21:36;;;;;;;;;;;;;;;4.33;88.70;100741.63;137113;1276;23221;-78
2024/02/14 08:24:37;;;;;;;;;;;;;;;4.71;88.53;100737.80;137129;1276;22455;-79
2024/02/14 08:27:37;;;;;;;;;;;;;;;4.87;87.09;100734.15;137127;1276;22394;-79
2024/02/14 08:30:38;;;;;;;;;;;;;;;4.84;86.70;100731.03;137134;1276;22428;-79
2024/02/14 08:33:38;;;;;;;;;;;;;;;4.87;86.13;100736.30;137137;1276;23190;-79
2024/02/14 08:36:40;;;;;;;;;;;;;;;5.06;86.52;100740.48;137177;1276;22383;-79
2024/02/14 08:39:41;;;;;;;;;;;;;;;5.27;84.80;100739.17;137125;1276;22335;-79
2024/02/14 08:42:41;;;;;;;;;;;;;;;5.36;83.77;100741.13;137105;1277;23256;-79
2024/02/14 08:45:42;;;;;;;;;;;;;;;5.40;82.90;100741.89;137133;1275;22380;-79
2024/02/14 08:48:45;;;;;;;;;;;;;;;5.42;82.53;100744.74;137171;1273;22421;-79
2024/02/14 08:51:47;;;;;;;;;;;;;;;5.54;83.87;100745.04;137156;1276;22386;-79
2024/02/14 08:54:48;;;;;;;;;;;;;;;5.67;82.18;100743.14;137165;1271;22408;-79
2024/02/14 08:57:48;;;;;;;;;;;;;;;5.71;81.41;100736.50;137116;1276;22415;-79
2024/02/14 09:00:49;;;;;;;;;;;;;;;5.79;82.00;100733.79;137157;1276;22409;-79
2024/02/14 09:03:52;;;;;;;;;;;;;;;5.93;81.13;100724.29;137143;1276;23075;-79
2024/02/14 09:06:53;;;;;;;;;;;;;;;6.24;81.82;100727.95;137126;1276;22469;-79
2024/02/14 09:09:54;;;;;;;;;;;;;;;6.59;82.06;100732.66;137175;1276;22401;-79
2024/02/14 09:12:54;;;;;;;;;;;;;;;6.84;80.62;100734.11;137102;1277;22411;-79
2024/02/14 09:15:59;;;;;;;;;;;;;;;7.10;80.70;100740.70;137151;1277;22409;-79
2024/02/14 09:19:01;;;;;;;;;;;;;;;7.35;79.78;100740.02;137162;1272;22384;-79
2024/02/14 09:22:01;;;;;;;;;;;;;;;7.61;80.02;100739.20;137105;1276;22394;-79
2024/02/14 09:25:05;;;;;;;;;;;;;;;7.92;80.55;100736.52;137153;1276;22415;-79
2024/02/14 09:28:09;;;;;;;;;;;;;;;8.21;78.77;100736.17;137156;1277;22265;-78
2024/02/14 09:31:19;;;;;;;;;;;;;;;8.18;76.47;100739.48;137134;1277;23101;-79
2024/02/14 09:34:20;;;;;;;;;;;;;;;8.05;75.92;100729.50;136947;1276;268456;-80
2024/02/14 09:37:26;;;;;;;;;;;;;;;7.89;74.56;100726.00;137121;1274;22397;-81
2024/02/14 09:40:27;;;;;;;;;;;;;;;7.61;74.51;100724.94;137131;1276;22344;-80
2024/02/14 09:47:09;;;;;;;;;;;;;;;7.22;75.14;100725.85;136937;1276;22406;-80
2024/02/14 09:50:24;;;;;;;;;;;;;;;;;;;;;
2024/02/14 09:53:35;;;;;;;;;;;;;;;7.00;75.40;100731.72;137116;1272;23396;-82
2024/02/14 09:56:36;;;;;;;;;;;;;;;7.16;75.11;100726.33;137121;1276;22400;-82
2024/02/14 09:59:37;;;;;;;;;;;;;;;7.34;74.24;100725.27;137108;1276;23062;-82
2024/02/14 10:03:00;;;;;;;;;;;;;;;;;;;;;
2024/02/14 10:06:41;;;;;;;;;;;;;;;;;;;;;
2024/02/14 10:10:38;;;;;;;;;;;;;;;;;;;;;
2024/02/14 10:18:11;;;;;;;;;;;;;;;7.73;72.25;100712.61;137128;1276;23466;-84
2024/02/14 10:21:26;;;;;;;;;;;;;;;7.71;72.78;100710.65;137167;1276;23112;-84
2024/02/14 10:25:09;;;;;;;;;;;;;;;7.73;71.15;100710.02;136633;1280;22477;-84
2024/02/14 10:28:21;;;;;;;;;;;;;;;;;;;;;
2024/02/14 10:31:31;;;;;;;;;;;;;;;7.84;70.58;100698.27;136683;1280;23185;-85
2024/02/14 10:34:33;;;;;;;;;;;;;;;7.96;71.53;100692.67;136654;1280;23256;-85
2024/02/14 10:38:00;;;;;;;;;;;;;;;8.20;70.68;100687.01;136434;1284;22425;-84
2024/02/14 10:41:02;;;;;;;;;;;;;;;8.13;68.79;100678.77;136384;1284;23371;-84
2024/02/14 10:44:14;;;;;;;;;;;;;;;8.02;68.82;100671.43;136423;1284;23231;-84
2024/02/14 10:47:30;;;;;;;;;;;;;;;8.01;69.62;100672.20;136199;1287;23165;-84
2024/02/14 10:50:53;;;;;;;;;;;;;;;7.99;68.25;100669.63;136156;1288;23378;-85
2024/02/14 10:54:16;;;;;;;;;;;;;;;7.80;68.25;100667.97;135935;1291;22491;-85
2024/02/14 10:57:23;;;;;;;;;;;;;;;7.74;68.83;100663.91;136053;1288;22423;-84
2024/02/14 11:01:32;;;;;;;;;;;;;;;;;;;;;
2024/02/14 11:04:47;;;;;;;;;;;;;;;7.66;68.87;100659.16;136157;1288;23618;-84
2024/02/14 11:08:35;;;;;;;;;;;;;;;7.68;68.55;100657.91;136009;1288;22550;-85
2024/02/14 11:11:42;;;;;;;;;;;;;;;7.68;68.67;100647.39;136208;1286;22450;-85
2024/02/14 11:14:52;;;;;;;;;;;;;;;7.75;69.23;100644.27;136204;1286;22450;-85
2024/02/14 11:18:03;;;;;;;;;;;;;;;7.82;68.62;100636.40;136229;1286;22322;-84
2024/02/14 11:21:19;;;;;;;;;;;;;;;7.91;68.99;100630.89;136204;1285;22539;-85
2024/02/14 11:24:28;;;;;;;;;;;;;;;8.03;67.86;100622.73;136318;1281;23245;-85
2024/02/14 11:27:28;;;;;;;;;;;;;;;8.13;68.86;100613.78;136506;1280;22440;-85
2024/02/14 11:30:34;;;;;;;;;;;;;;;8.36;68.58;100610.27;136780;1279;22402;-84
2024/02/14 11:33:35;;;;;;;;;;;;;;;8.47;67.62;100607.46;136898;1276;22442;-85
2024/02/14 11:36:42;;;;;;;;;;;;;;;8.61;68.87;100600.80;137140;1276;22445;-85
2024/02/14 11:39:48;;;;;;;;;;;;;;;8.78;67.81;100593.31;136935;1276;23043;-84
2024/02/14 11:43:22;;;;;;;;;;;;;;;;;;;;;
2024/02/14 11:46:28;;;;;;;;;;;;;;;8.90;66.03;100585.33;137173;1276;22292;-85
2024/02/14 11:49:52;;;;;;;;;;;;;;;8.99;66.90;100585.39;137098;1276;23090;-84
2024/02/14 11:53:08;;;;;;;;;;;;;;;9.08;66.20;100584.34;137145;1276;23004;-84
2024/02/14 11:56:38;;;;;;;;;;;;;;;8.99;64.44;100585.56;137136;1276;22489;-85
2024/02/14 12:00:28;;;;;;;;;;;;;;;;;;;;;
2024/02/14 12:04:15;;;;;;;;;;;;;;;;;;;;;
2024/02/14 12:07:42;;;;;;;;;;;;;;;9.09;65.40;100586.25;137141;1276;22574;-86
2024/02/14 12:11:03;;;;;;;;;;;;;;;9.11;65.07;100583.90;137152;1276;23173;-84
2024/02/14 12:14:10;;;;;;;;;;;;;;;9.09;65.20;100587.27;137148;1276;22869;-84
2024/02/14 12:17:12;;;;;;;;;;;;;;;9.00;64.19;100584.98;137149;1276;22381;-84
2024/02/14 12:20:16;;;;;;;;;;;;;;;8.93;64.80;100588.42;137118;1276;22391;-84
2024/02/14 12:23:17;;;;;;;;;;;;;;;8.87;64.28;100577.19;137152;1276;22440;-84
2024/02/14 12:26:19;;;;;;;;;;;;;;;8.85;63.99;100573.52;137182;1276;22428;-85
2024/02/14 12:29:23;;;;;;;;;;;;;;;8.84;65.15;100571.13;136970;1274;22387;-84
2024/02/14 12:32:33;;;;;;;;;;;;;;;8.91;64.75;100569.20;137127;1276;22386;-84
2024/02/14 12:35:53;;;;;;;;;;;;;;;8.86;63.52;100572.48;136973;1276;22430;-84
2024/02/14 12:39:02;;;;;;;;;;;;;;;8.78;63.59;100572.02;136956;1276;22297;-83
2024/02/14 12:42:06;;;;;;;;;;;;;;;8.75;63.86;100575.84;137166;1276;22437;-84
2024/02/14 12:45:41;;;;;;;;;;;;;;;;;;;;;
2024/02/14 12:48:51;;;;;;;;;;;;;;;8.62;64.47;100573.90;136767;1280;22933;-83
2024/02/14 12:51:57;;;;;;;;;;;;;;;8.61;64.95;100571.14;136829;1280;23350;-83
2024/02/14 12:55:09;;;;;;;;;;;;;;;;;;;;;
2024/02/14 12:58:42;;;;;;;;;;;;;;;8.48;63.39;100562.31;136743;1280;23305;-84
2024/02/14 13:02:06;;;;;;;;;;;;;;;8.44;64.31;100559.34;136660;1280;22423;-84
2024/02/14 13:05:19;;;;;;;;;;;;;;;8.40;64.30;100551.39;136645;1280;22436;-84
2024/02/14 13:08:26;;;;;;;;;;;;;;;8.35;63.65;100549.05;136805;1276;23653;-84
2024/02/14 13:11:43;;;;;;;;;;;;;;;8.28;64.00;100542.55;136812;1276;23532;-84
2024/02/14 13:15:34;;;;;;;;;;;;;;;;;;;;;
2024/02/14 13:20:00;;;;;;;;;;;;;;;8.26;63.87;100546.30;136896;1276;22437;-84
2024/02/14 13:27:16;;;;;;;;;;;;;;;;;;;;;
2024/02/14 13:30:46;;;;;;;;;;;;;;;8.46;63.98;100536.14;137131;1276;22434;-84
2024/02/14 13:33:52;;;;;;;;;;;;;;;8.49;63.96;100536.81;137207;1277;22394;-85
2024/02/14 13:36:58;;;;;;;;;;;;;;;8.53;63.82;100532.04;137170;1277;22424;-84
2024/02/14 13:40:09;;;;;;;;;;;;;;;8.55;62.96;100530.08;137201;1277;22464;-84
2024/02/14 13:43:51;;;;;;;;;;;;;;;8.55;61.96;100523.38;137181;1277;22367;-84
2024/02/14 13:46:53;;;;;;;;;;;;;;;8.56;62.36;100521.56;137162;1277;22440;-84
2024/02/14 13:50:00;;;;;;;;;;;;;;;8.59;62.87;100520.89;137131;1277;22408;-83
2024/02/14 13:53:20;;;;;;;;;;;;;;;8.62;62.22;100521.70;136997;1276;22431;-84
2024/02/14 13:56:52;;;;;;;;;;;;;;;8.61;62.07;100518.40;137140;1276;22355;-84
2024/02/14 14:00:14;;;;;;;;;;;;;;;;;;;;;
2024/02/14 14:03:54;;;;;;;;;;;;;;;8.62;62.71;100511.58;137082;1276;22426;-84
2024/02/14 14:07:38;;;;;;;;;;;;;;;;;;;;;
2024/02/14 14:10:57;;;;;;;;;;;;;;;8.72;62.95;100508.54;136582;1281;22475;-84
2024/02/14 14:14:15;;;;;;;;;;;;;;;8.76;63.35;100510.96;136584;1281;22457;-79
2024/02/14 14:17:19;;;;;;;;;;;;;;;8.78;62.78;100514.53;136601;1281;22423;-85
2024/02/14 14:20:50;;;;;;;;;;;;;;;8.75;62.90;100510.05;136434;1284;22427;-84
2024/02/14 14:24:11;;;;;;;;;;;;;;;8.79;63.30;100505.42;136089;1286;22463;-83
2024/02/14 14:27:14;;;;;;;;;;;;;;;8.84;62.79;100505.48;136207;1286;22450;-84
2024/02/14 14:30:30;;;;;;;;;;;;;;;;;;;;;
2024/02/14 14:33:43;;;;;;;;;;;;;;;8.89;62.80;100492.44;136259;1282;22582;-84
2024/02/14 14:36:44;;;;;;;;;;;;;;;8.87;62.59;100491.95;136499;1279;22457;-84
2024/02/14 14:39:57;;;;;;;;;;;;;;;8.79;62.06;100494.66;136501;1282;22488;-83
2024/02/14 14:43:30;;;;;;;;;;;;;;;;;;;;;
2024/02/14 14:46:51;;;;;;;;;;;;;;;8.65;62.80;100501.08;136446;1282;22432;-84
2024/02/14 14:49:54;;;;;;;;;;;;;;;8.62;63.06;100500.50;136481;1280;22450;-83
2024/02/14 14:53:18;;;;;;;;;;;;;;;8.59;62.55;100497.77;136400;1284;22462;-84
2024/02/14 14:56:25;;;;;;;;;;;;;;;8.56;63.04;100495.95;136418;1284;22457;-85
2024/02/14 14:59:29;;;;;;;;;;;;;;;8.52;63.39;100497.91;136653;1280;22512;-84
2024/02/14 15:02:30;;;;;;;;;;;;;;;8.48;63.75;100507.77;136663;1277;22449;-84
2024/02/14 15:05:31;;;;;;;;;;;;;;;8.45;63.94;100503.80;136660;1280;22420;-84
2024/02/14 15:08:50;;;;;;;;;;;;;;;;;;;;;
2024/02/14 15:12:25;;;;;;;;;;;;;;;;;;;;;
2024/02/14 15:16:00;;;;;;;;;;;;;;;8.34;64.17;100504.92;136696;1280;23142;-84
2024/02/14 15:19:18;;;;;;;;;;;;;;;8.30;64.36;100507.91;136733;1280;22445;-84
2024/02/14 15:22:19;;;;;;;;;;;;;;;8.27;64.86;100510.77;136751;1280;22394;-84
2024/02/14 15:25:30;;;;;;;;;;;;;;;8.24;65.12;100502.79;137106;1276;22451;-83
2024/02/14 15:28:55;;;;;;;;;;;;;;;;;;;;;
2024/02/14 15:35:25;;;;;;;;;;;;;;;8.19;65.40;100512.05;137026;1276;22414;-84
2024/02/14 15:38:46;;;;;;;;;;;;;;;8.18;65.50;100513.05;137152;1276;22392;-84
2024/02/14 15:41:47;;;;;;;;;;;;;;;8.17;65.61;100511.24;137121;1276;22438;-84
2024/02/14 15:44:50;;;;;;;;;;;;;;;8.15;65.56;100508.23;136952;1276;22396;-84
2024/02/14 15:47:57;;;;;;;;;;;;;;;8.15;65.40;100505.96;137171;1276;22362;-83
2024/02/14 15:50:59;;;;;;;;;;;;;;;8.16;65.61;100513.57;137189;1276;22579;-84
2024/02/14 15:54:11;;;;;;;;;;;;;;;8.17;65.62;100515.21;137218;1276;22311;-83
2024/02/14 15:57:20;;;;;;;;;;;;;;;8.18;65.74;100520.67;137184;1276;22400;-84
2024/02/14 16:00:29;;;;;;;;;;;;;;;8.16;65.86;100521.20;137152;1276;23184;-85
2024/02/14 16:03:33;;;;;;;;;;;;;;;8.14;66.11;100527.35;136998;1275;22317;-84
2024/02/14 16:06:46;;;;;;;;;;;;;;;8.13;66.06;100526.05;137037;1276;22277;-84
2024/02/14 16:09:56;;;;;;;;;;;;;;;8.11;65.95;100527.98;137209;1277;22408;-84
2024/02/14 16:13:00;;;;;;;;;;;;;;;8.07;65.91;100527.56;137205;1276;22315;-83
2024/02/14 16:16:02;;;;;;;;;;;;;;;8.06;66.07;100530.36;137133;1276;23377;-83
2024/02/14 16:19:04;;;;;;;;;;;;;;;8.03;66.29;100538.88;137198;1276;22413;-84
2024/02/14 16:22:15;;;;;;;;;;;;;;;8.01;66.48;100546.08;137156;1276;23118;-83
2024/02/14 16:25:42;;;;;;;;;;;;;;;7.98;66.84;100543.94;136973;1276;22439;-84
2024/02/14 16:29:11;;;;;;;;;;;;;;;;;;;;;
2024/02/14 16:32:14;;;;;;;;;;;;;;;7.93;67.21;100547.89;137161;1273;22290;-83
2024/02/14 16:35:15;;;;;;;;;;;;;;;7.92;67.44;100546.95;137154;1276;23530;-83
2024/02/14 16:38:33;;;;;;;;;;;;;;;7.91;67.52;100549.14;137114;1276;22382;-84
2024/02/14 16:41:45;;;;;;;;;;;;;;;7.91;67.85;100548.60;136999;1276;22306;-83
2024/02/14 16:44:48;;;;;;;;;;;;;;;7.90;68.02;100547.00;137199;1276;22387;-84